createdAt,value
2019-03-30T00:00:46.113Z,9.15
2019-03-30T00:02:20.438Z,9.17
2019-03-30T00:03:54.434Z,9.07
2019-03-30T00:05:28.471Z,9.02
2019-03-30T00:07:02.461Z,9.04
2019-03-30T00:08:36.389Z,8.94
2019-03-30T00:10:10.391Z,8.93
2019-03-30T00:11:44.494Z,8.95
2019-03-30T00:13:18.433Z,9.05
2019-03-30T00:14:52.469Z,9.00
2019-03-30T00:16:26.460Z,8.99
2019-03-30T00:18:00.393Z,9.05
2019-03-30T00:19:35.251Z,9.00
2019-03-30T00:21:09.398Z,8.94
2019-03-30T00:22:43.393Z,9.00
2019-03-30T00:24:17.322Z,8.90
2019-03-30T00:25:51.301Z,8.83
2019-03-30T00:27:25.270Z,8.73
2019-03-30T00:28:59.221Z,8.77
2019-03-30T00:30:33.226Z,8.82
2019-03-30T00:32:07.151Z,8.78
2019-03-30T00:33:41.078Z,8.70
2019-03-30T00:35:14.993Z,8.64
2019-03-30T00:36:48.938Z,8.65
2019-03-30T00:38:22.877Z,8.52
2019-03-30T00:39:56.858Z,8.61
2019-03-30T00:41:31.730Z,8.56
2019-03-30T00:43:05.669Z,8.62
2019-03-30T00:44:39.607Z,8.57
2019-03-30T00:46:13.608Z,8.51
2019-03-30T00:47:47.550Z,8.53
2019-03-30T00:49:21.470Z,8.50
2019-03-30T00:50:55.388Z,8.38
2019-03-30T00:52:29.349Z,8.32
2019-03-30T00:54:03.335Z,8.35
2019-03-30T00:55:37.309Z,8.34
2019-03-30T00:57:11.228Z,8.35
2019-03-30T00:58:45.216Z,8.26
2019-03-30T01:00:19.227Z,8.32
2019-03-30T01:01:53.205Z,8.33
2019-03-30T01:03:27.108Z,8.34
2019-03-30T01:05:02.001Z,8.27
2019-03-30T01:06:37.097Z,8.25
2019-03-30T01:08:11.171Z,8.29
2019-03-30T01:09:45.212Z,8.15
2019-03-30T01:11:19.204Z,8.13
2019-03-30T01:12:53.106Z,8.13
2019-03-30T01:14:27.088Z,8.16
2019-03-30T01:16:01.114Z,8.17
2019-03-30T01:17:35.115Z,8.12
2019-03-30T01:19:09.374Z,8.09
2019-03-30T01:20:43.328Z,8.09
2019-03-30T01:22:17.245Z,8.11
2019-03-30T01:23:51.234Z,8.11
2019-03-30T01:25:25.238Z,8.07
2019-03-30T01:26:59.240Z,8.10
2019-03-30T01:28:33.213Z,8.06
2019-03-30T01:30:22.123Z,8.01
2019-03-30T01:31:44.980Z,7.87
2019-03-30T01:33:18.915Z,7.86
2019-03-30T01:34:52.831Z,7.79
2019-03-30T01:36:27.796Z,7.86
2019-03-30T01:38:01.721Z,7.88
2019-03-30T01:39:35.686Z,7.85
2019-03-30T01:41:09.686Z,7.77
2019-03-30T01:42:43.657Z,7.92
2019-03-30T01:44:17.557Z,7.89
2019-03-30T01:45:51.510Z,7.92
2019-03-30T01:47:25.484Z,7.88
2019-03-30T01:48:59.410Z,7.81
2019-03-30T01:50:34.385Z,7.71
2019-03-30T01:52:08.293Z,7.70
2019-03-30T01:53:42.214Z,7.89
2019-03-30T01:55:16.233Z,7.81
2019-03-30T01:56:50.213Z,7.79
2019-03-30T01:58:24.129Z,7.84
2019-03-30T01:59:58.055Z,7.74
2019-03-30T02:01:32.001Z,7.75
2019-03-30T02:03:05.985Z,7.76
2019-03-30T02:04:39.985Z,7.76
2019-03-30T02:06:14.092Z,7.72
2019-03-30T02:07:49.155Z,7.80
2019-03-30T02:09:23.101Z,7.75
2019-03-30T02:10:57.815Z,7.65
2019-03-30T02:12:32.172Z,7.65
2019-03-30T02:14:06.103Z,7.67
2019-03-30T02:15:40.061Z,7.63
2019-03-30T02:17:13.959Z,7.69
2019-03-30T02:18:47.947Z,7.78
2019-03-30T02:20:30.973Z,7.73
2019-03-30T02:22:03.266Z,7.64
2019-03-30T02:23:37.182Z,7.71
2019-03-30T02:25:11.156Z,7.61
2019-03-30T02:26:45.131Z,7.59
2019-03-30T02:28:19.049Z,7.57
2019-03-30T02:29:53.041Z,7.61
2019-03-30T02:31:26.966Z,7.72
2019-03-30T02:33:00.874Z,7.66
2019-03-30T02:34:35.899Z,7.63
2019-03-30T02:36:09.905Z,7.67
2019-03-30T02:37:43.889Z,7.63
2019-03-30T02:39:17.879Z,7.53
2019-03-30T02:40:51.927Z,7.43
2019-03-30T02:42:25.883Z,7.43
2019-03-30T02:43:59.794Z,7.53
2019-03-30T02:45:33.766Z,7.61
2019-03-30T02:47:07.672Z,7.46
2019-03-30T02:48:41.665Z,7.51
2019-03-30T02:50:15.683Z,7.51
2019-03-30T02:51:49.681Z,7.55
2019-03-30T02:53:23.670Z,7.45
2019-03-30T02:54:57.642Z,7.46
2019-03-30T02:56:31.642Z,7.43
2019-03-30T02:58:05.630Z,7.51
2019-03-30T02:59:39.628Z,7.48
2019-03-30T03:01:13.698Z,7.45
2019-03-30T03:02:47.700Z,7.42
2019-03-30T03:04:21.698Z,7.50
2019-03-30T03:05:55.658Z,7.38
2019-03-30T03:07:29.659Z,7.57
2019-03-30T03:09:05.559Z,7.43
2019-03-30T03:10:39.715Z,7.42
2019-03-30T03:12:14.686Z,7.37
2019-03-30T03:13:48.790Z,7.29
2019-03-30T03:15:22.730Z,7.31
2019-03-30T03:16:56.725Z,7.26
2019-03-30T03:18:30.686Z,7.21
2019-03-30T03:20:04.883Z,7.13
2019-03-30T03:21:38.818Z,7.19
2019-03-30T03:23:12.735Z,7.28
2019-03-30T03:24:46.819Z,7.26
2019-03-30T03:26:20.818Z,7.13
2019-03-30T03:27:54.744Z,7.14
2019-03-30T03:29:28.726Z,7.10
2019-03-30T03:31:02.646Z,7.03
2019-03-30T03:32:36.582Z,7.12
2019-03-30T03:34:11.558Z,7.05
2019-03-30T03:35:45.540Z,7.01
2019-03-30T03:37:19.535Z,7.00
2019-03-30T03:38:53.459Z,7.02
2019-03-30T03:40:27.387Z,6.99
2019-03-30T03:42:01.439Z,7.05
2019-03-30T03:43:35.445Z,7.00
2019-03-30T03:45:09.530Z,7.03
2019-03-30T03:46:43.446Z,7.05
2019-03-30T03:48:17.465Z,7.05
2019-03-30T03:49:51.454Z,6.89
2019-03-30T03:51:26.785Z,6.99
2019-03-30T03:53:00.953Z,6.91
2019-03-30T03:54:34.948Z,6.99
2019-03-30T03:56:08.895Z,6.91
2019-03-30T03:57:43.078Z,6.96
2019-03-30T03:59:17.226Z,6.99
2019-03-30T04:00:51.222Z,6.98
2019-03-30T04:02:25.655Z,6.92
2019-03-30T04:03:59.694Z,6.94
2019-03-30T04:05:34.747Z,6.96
2019-03-30T04:07:09.714Z,7.01
2019-03-30T04:08:44.091Z,7.00
2019-03-30T04:10:18.077Z,6.97
2019-03-30T04:11:52.011Z,6.93
2019-03-30T04:13:27.415Z,6.91
2019-03-30T04:15:01.410Z,6.89
2019-03-30T04:16:35.338Z,6.88
2019-03-30T04:18:09.363Z,6.92
2019-03-30T04:19:43.359Z,6.91
2019-03-30T04:21:17.346Z,6.95
2019-03-30T04:22:51.470Z,6.88
2019-03-30T04:24:25.479Z,6.86
2019-03-30T04:25:59.472Z,6.88
2019-03-30T04:27:33.489Z,6.83
2019-03-30T04:29:07.458Z,6.88
2019-03-30T04:30:41.406Z,6.80
2019-03-30T04:32:15.325Z,6.84
2019-03-30T04:33:49.261Z,6.82
2019-03-30T04:35:23.162Z,6.75
2019-03-30T04:36:57.080Z,6.83
2019-03-30T04:38:31.088Z,6.81
2019-03-30T04:40:05.033Z,6.74
2019-03-30T04:41:38.949Z,6.76
2019-03-30T04:43:12.861Z,6.70
2019-03-30T04:44:46.813Z,6.73
2019-03-30T04:46:20.800Z,6.66
2019-03-30T04:47:54.714Z,6.85
2019-03-30T04:49:28.631Z,6.82
2019-03-30T04:51:02.623Z,6.66
2019-03-30T04:52:36.704Z,6.77
2019-03-30T04:54:10.699Z,6.72
2019-03-30T04:55:44.615Z,6.83
2019-03-30T04:57:18.517Z,6.82
2019-03-30T04:58:52.417Z,6.72
2019-03-30T05:00:26.366Z,6.82
2019-03-30T05:02:00.393Z,6.81
2019-03-30T05:03:34.389Z,6.79
2019-03-30T05:05:08.458Z,6.81
2019-03-30T05:06:42.402Z,6.81
2019-03-30T05:08:16.398Z,6.81
2019-03-30T05:09:50.365Z,6.80
2019-03-30T05:11:24.279Z,6.82
2019-03-30T05:12:58.188Z,6.81
2019-03-30T05:14:32.213Z,6.94
2019-03-30T05:16:06.131Z,6.91
2019-03-30T05:17:47.331Z,6.92
2019-03-30T05:19:16.798Z,6.91
2019-03-30T05:20:50.761Z,6.98
2019-03-30T05:22:25.729Z,6.96
2019-03-30T05:23:59.642Z,6.99
2019-03-30T05:25:33.592Z,7.00
2019-03-30T05:27:07.617Z,7.14
2019-03-30T05:28:42.562Z,7.16
2019-03-30T05:30:16.453Z,7.12
2019-03-30T05:31:50.378Z,7.13
2019-03-30T05:33:24.273Z,7.17
2019-03-30T05:34:58.194Z,7.23
2019-03-30T05:36:32.201Z,7.28
2019-03-30T05:38:06.225Z,7.20
2019-03-30T05:39:40.159Z,7.33
2019-03-30T05:41:15.272Z,7.42
2019-03-30T05:42:49.262Z,7.50
2019-03-30T05:44:23.165Z,7.59
2019-03-30T05:45:57.085Z,7.61
2019-03-30T05:47:31.622Z,7.64
2019-03-30T05:49:05.598Z,7.73
2019-03-30T05:50:39.541Z,7.79
2019-03-30T05:52:25.830Z,7.82
2019-03-30T05:53:49.165Z,8.01
2019-03-30T05:55:23.091Z,8.93
2019-03-30T05:56:57.009Z,11.38
2019-03-30T05:58:30.925Z,11.30
2019-03-30T06:00:05.281Z,9.76
2019-03-30T06:01:39.293Z,12.69
2019-03-30T06:03:13.222Z,14.88
2019-03-30T06:04:47.166Z,12.82
2019-03-30T06:06:21.078Z,11.40
2019-03-30T06:07:55.005Z,10.09
2019-03-30T06:09:28.984Z,11.18
2019-03-30T06:11:02.993Z,14.47
2019-03-30T06:12:37.097Z,16.00
2019-03-30T06:14:11.057Z,16.31
2019-03-30T06:15:44.985Z,17.75
2019-03-30T06:17:18.926Z,18.25
2019-03-30T06:18:52.833Z,18.32
2019-03-30T06:20:26.794Z,19.20
2019-03-30T06:22:00.866Z,18.07
2019-03-30T06:23:34.798Z,17.66
2019-03-30T06:25:08.987Z,18.28
2019-03-30T06:26:42.984Z,17.59
2019-03-30T06:28:16.993Z,18.73
2019-03-30T06:30:08.574Z,19.87
2019-03-30T06:31:42.493Z,20.22
2019-03-30T06:33:16.460Z,21.05
2019-03-30T06:34:50.477Z,21.06
2019-03-30T06:36:24.422Z,20.21
2019-03-30T06:37:58.431Z,19.58
2019-03-30T06:39:32.349Z,21.44
2019-03-30T06:41:06.371Z,21.27
2019-03-30T06:42:40.412Z,21.16
2019-03-30T06:44:14.437Z,22.03
2019-03-30T06:45:48.752Z,21.87
2019-03-30T06:47:22.746Z,21.59
2019-03-30T06:48:58.287Z,23.25
2019-03-30T06:50:32.205Z,23.42
2019-03-30T06:52:06.233Z,23.98
2019-03-30T06:53:40.270Z,23.35
2019-03-30T06:55:14.298Z,22.86
2019-03-30T06:56:48.226Z,23.27
2019-03-30T06:58:22.209Z,23.46
2019-03-30T06:59:56.130Z,25.87
2019-03-30T07:01:30.141Z,21.89
2019-03-30T07:03:07.732Z,21.89
2019-03-30T07:04:41.725Z,22.62
2019-03-30T07:06:15.660Z,24.48
2019-03-30T07:07:49.662Z,25.84
2019-03-30T07:09:23.594Z,23.39
2019-03-30T07:10:57.602Z,23.89
2019-03-30T07:12:31.541Z,22.69
2019-03-30T07:14:05.500Z,22.64
2019-03-30T07:15:44.900Z,24.08
2019-03-30T07:17:18.885Z,20.81
2019-03-30T07:18:52.805Z,23.73
2019-03-30T07:20:27.354Z,21.65
2019-03-30T07:22:01.290Z,23.36
2019-03-30T07:23:35.301Z,22.82
2019-03-30T07:25:09.210Z,24.50
2019-03-30T07:26:43.162Z,23.06
2019-03-30T07:28:17.096Z,23.40
2019-03-30T07:29:51.102Z,22.58
2019-03-30T07:31:25.103Z,23.64
2019-03-30T07:32:59.097Z,23.98
2019-03-30T07:34:33.060Z,24.86
2019-03-30T07:36:07.004Z,23.87
2019-03-30T07:37:44.077Z,22.44
2019-03-30T07:39:18.096Z,22.07
2019-03-30T07:40:52.081Z,23.35
2019-03-30T07:42:26.102Z,24.02
2019-03-30T07:44:00.009Z,23.39
2019-03-30T07:45:33.931Z,22.71
2019-03-30T07:47:07.898Z,21.92
2019-03-30T07:48:41.829Z,22.82
2019-03-30T07:50:17.051Z,21.59
2019-03-30T07:51:51.139Z,22.83
2019-03-30T07:53:27.052Z,22.36
2019-03-30T07:55:01.237Z,25.29
2019-03-30T07:56:35.210Z,23.11
2019-03-30T07:58:09.312Z,23.63
2019-03-30T07:59:43.412Z,24.50
2019-03-30T08:01:17.423Z,22.22
2019-03-30T08:02:51.458Z,21.73
2019-03-30T08:04:28.460Z,19.97
2019-03-30T08:06:01.341Z,21.55
2019-03-30T08:07:35.537Z,22.96
2019-03-30T08:09:09.534Z,23.53
2019-03-30T08:10:43.489Z,23.91
2019-03-30T08:12:17.437Z,22.30
2019-03-30T08:13:51.393Z,21.09
2019-03-30T08:15:25.397Z,20.73
2019-03-30T08:16:59.681Z,20.17
2019-03-30T08:18:33.590Z,19.85
2019-03-30T08:20:07.566Z,21.13
2019-03-30T08:21:41.486Z,20.59
2019-03-30T08:23:15.394Z,19.44
2019-03-30T08:24:49.309Z,19.28
2019-03-30T08:26:23.261Z,19.57
2019-03-30T08:27:57.281Z,19.81
2019-03-30T08:29:31.178Z,19.66
2019-03-30T08:31:05.115Z,20.38
2019-03-30T08:32:39.108Z,18.52
2019-03-30T08:34:13.047Z,18.43
2019-03-30T08:35:47.014Z,19.33
2019-03-30T08:37:20.958Z,18.76
2019-03-30T08:38:54.903Z,20.06
2019-03-30T08:40:28.897Z,19.47
2019-03-30T08:42:02.831Z,19.17
2019-03-30T08:43:36.852Z,18.86
2019-03-30T08:45:10.937Z,19.25
2019-03-30T08:46:44.853Z,20.13
2019-03-30T08:48:18.812Z,19.75
2019-03-30T08:49:52.818Z,18.85
2019-03-30T08:51:26.769Z,19.64
2019-03-30T08:53:01.086Z,19.66
2019-03-30T08:54:35.003Z,19.64
2019-03-30T08:56:08.949Z,20.18
2019-03-30T08:57:42.975Z,19.07
2019-03-30T08:59:16.968Z,19.72
2019-03-30T09:00:50.940Z,19.53
2019-03-30T09:02:24.864Z,19.49
2019-03-30T09:03:58.878Z,19.58
2019-03-30T09:06:46.682Z,19.73
2019-03-30T09:08:20.630Z,18.98
2019-03-30T09:09:54.562Z,19.78
2019-03-30T09:11:28.561Z,19.46
2019-03-30T09:13:02.585Z,18.60
2019-03-30T09:14:36.503Z,19.31
2019-03-30T09:16:11.491Z,19.04
2019-03-30T09:17:45.750Z,18.83
2019-03-30T09:19:19.701Z,18.97
2019-03-30T09:20:53.633Z,19.03
2019-03-30T09:22:27.637Z,19.22
2019-03-30T09:24:09.390Z,19.83
2019-03-30T09:25:37.170Z,20.20
2019-03-30T09:27:12.094Z,19.84
2019-03-30T09:28:46.029Z,19.28
2019-03-30T09:30:20.089Z,19.71
2019-03-30T09:31:54.082Z,19.65
2019-03-30T09:33:28.036Z,19.64
2019-03-30T09:35:01.958Z,19.67
2019-03-30T09:36:36.166Z,19.46
2019-03-30T09:38:10.251Z,20.51
2019-03-30T09:39:44.183Z,20.30
2019-03-30T09:41:18.119Z,20.46
2019-03-30T09:42:52.130Z,19.89
2019-03-30T09:44:26.054Z,20.96
2019-03-30T09:46:00.034Z,21.43
2019-03-30T09:47:33.957Z,21.32
2019-03-30T09:49:07.913Z,21.18
2019-03-30T09:50:41.902Z,21.72
2019-03-30T09:52:15.858Z,20.51
2019-03-30T09:53:49.769Z,20.47
2019-03-30T09:55:26.981Z,20.19
2019-03-30T09:56:59.322Z,20.53
2019-03-30T09:58:33.738Z,20.18
2019-03-30T10:00:07.927Z,20.67
2019-03-30T10:01:41.950Z,21.42
2019-03-30T10:03:15.994Z,20.53
2019-03-30T10:04:49.999Z,20.77
2019-03-30T10:06:33.808Z,20.53
2019-03-30T10:08:01.109Z,20.98
2019-03-30T10:09:35.053Z,21.20
2019-03-30T10:11:09.051Z,21.11
2019-03-30T10:12:43.140Z,20.46
2019-03-30T10:14:17.127Z,21.29
2019-03-30T10:15:51.254Z,21.05
2019-03-30T10:17:25.189Z,21.40
2019-03-30T10:18:59.193Z,20.33
2019-03-30T10:20:33.197Z,21.64
2019-03-30T10:22:07.190Z,21.13
2019-03-30T10:23:41.103Z,20.98
2019-03-30T10:25:15.173Z,21.18
2019-03-30T10:26:49.129Z,21.40
2019-03-30T10:28:23.066Z,21.36
2019-03-30T10:29:56.989Z,20.35
2019-03-30T10:31:30.920Z,20.90
2019-03-30T10:33:04.918Z,21.81
2019-03-30T10:34:39.736Z,21.77
2019-03-30T10:36:13.994Z,21.74
2019-03-30T10:37:47.994Z,21.78
2019-03-30T10:39:21.917Z,22.05
2019-03-30T10:40:55.932Z,21.39
2019-03-30T10:42:29.927Z,21.25
2019-03-30T10:44:03.956Z,21.79
2019-03-30T10:45:37.893Z,21.40
2019-03-30T10:47:11.901Z,20.99
2019-03-30T10:48:45.914Z,20.37
2019-03-30T10:50:19.830Z,20.94
2019-03-30T10:51:54.496Z,20.73
2019-03-30T10:53:28.598Z,20.89
2019-03-30T10:55:02.622Z,20.89
2019-03-30T10:56:36.633Z,21.29
2019-03-30T10:58:10.564Z,20.12
2019-03-30T10:59:44.937Z,20.02
2019-03-30T11:01:18.933Z,20.06
2019-03-30T11:02:52.914Z,19.92
2019-03-30T11:04:26.860Z,20.03
2019-03-30T11:06:01.378Z,19.77
2019-03-30T11:07:35.336Z,19.73
2019-03-30T11:09:09.274Z,19.66
2019-03-30T11:10:43.266Z,19.68
2019-03-30T11:12:17.179Z,20.24
2019-03-30T11:13:51.106Z,19.92
2019-03-30T11:15:25.157Z,19.80
2019-03-30T11:16:59.170Z,19.93
2019-03-30T11:18:33.151Z,19.32
2019-03-30T11:20:07.143Z,19.30
2019-03-30T11:21:41.134Z,19.52
2019-03-30T11:23:15.078Z,19.78
2019-03-30T11:24:49.016Z,19.59
2019-03-30T11:26:22.932Z,19.90
2019-03-30T11:27:56.913Z,19.65
2019-03-30T11:29:30.911Z,19.67
2019-03-30T11:31:05.538Z,19.98
2019-03-30T11:32:39.874Z,19.76
2019-03-30T11:34:13.894Z,19.81
2019-03-30T11:35:47.812Z,19.61
2019-03-30T11:37:21.726Z,19.96
2019-03-30T11:38:55.645Z,19.49
2019-03-30T11:40:29.564Z,19.76
2019-03-30T11:42:03.534Z,18.75
2019-03-30T11:43:37.525Z,19.00
2019-03-30T11:45:11.632Z,18.94
2019-03-30T11:46:45.621Z,18.95
2019-03-30T11:48:19.661Z,18.90
2019-03-30T11:49:53.773Z,18.53
2019-03-30T11:51:27.762Z,18.59
2019-03-30T11:53:01.718Z,18.62
2019-03-30T11:54:35.706Z,18.94
2019-03-30T11:56:09.652Z,19.47
2019-03-30T11:57:43.658Z,19.60
2019-03-30T11:59:17.662Z,19.75
2019-03-30T12:00:51.669Z,19.81
2019-03-30T12:02:28.222Z,19.88
2019-03-30T12:04:02.437Z,19.61
2019-03-30T12:05:36.377Z,19.40
2019-03-30T12:07:10.345Z,19.73
2019-03-30T12:08:45.254Z,19.78
2019-03-30T12:10:20.494Z,20.14
2019-03-30T12:11:54.458Z,20.01
2019-03-30T12:13:28.428Z,19.52
2019-03-30T12:15:02.403Z,19.57
2019-03-30T12:16:36.422Z,20.08
2019-03-30T12:18:10.422Z,19.97
2019-03-30T12:19:44.382Z,20.07
2019-03-30T12:21:18.365Z,20.04
2019-03-30T12:22:52.338Z,19.84
2019-03-30T12:24:26.342Z,19.67
2019-03-30T12:26:00.354Z,20.27
2019-03-30T12:27:34.281Z,20.75
2019-03-30T12:29:08.238Z,20.59
2019-03-30T12:30:42.182Z,20.64
2019-03-30T12:32:17.818Z,20.91
2019-03-30T12:33:51.746Z,21.06
2019-03-30T12:35:25.726Z,20.71
2019-03-30T12:36:59.641Z,20.54
2019-03-30T12:38:33.876Z,21.00
2019-03-30T12:40:07.818Z,20.88
2019-03-30T12:41:41.756Z,20.95
2019-03-30T12:43:15.676Z,20.87
2019-03-30T12:44:49.603Z,20.34
2019-03-30T12:46:23.585Z,20.00
2019-03-30T12:47:57.608Z,20.07
2019-03-30T12:49:31.633Z,20.22
2019-03-30T12:51:05.566Z,20.28
2019-03-30T12:52:39.497Z,20.47
2019-03-30T12:54:13.406Z,20.56
2019-03-30T12:55:49.441Z,20.49
2019-03-30T12:57:23.039Z,20.37
2019-03-30T12:58:56.960Z,20.24
2019-03-30T13:00:30.942Z,20.71
2019-03-30T13:02:04.850Z,20.78
2019-03-30T13:03:38.771Z,21.30
2019-03-30T13:05:12.705Z,21.40
2019-03-30T13:06:46.661Z,21.81
2019-03-30T13:08:20.582Z,21.34
2019-03-30T13:09:54.561Z,20.66
2019-03-30T13:11:28.485Z,20.12
2019-03-30T13:13:02.415Z,19.78
2019-03-30T13:14:36.347Z,19.93
2019-03-30T13:16:10.342Z,20.14
2019-03-30T13:17:44.410Z,20.64
2019-03-30T13:19:18.625Z,20.65
2019-03-30T13:20:52.600Z,20.84
2019-03-30T13:22:26.530Z,20.44
2019-03-30T13:24:00.445Z,20.07
2019-03-30T13:25:34.548Z,20.19
2019-03-30T13:27:08.500Z,20.33
2019-03-30T13:28:42.402Z,20.26
2019-03-30T13:30:16.673Z,20.35
2019-03-30T13:31:50.581Z,21.09
2019-03-30T13:33:24.659Z,20.91
2019-03-30T13:34:58.575Z,20.99
2019-03-30T13:36:42.259Z,21.19
2019-03-30T13:38:16.251Z,20.85
2019-03-30T13:39:50.333Z,21.02
2019-03-30T13:41:24.258Z,21.14
2019-03-30T13:42:58.182Z,21.31
2019-03-30T13:44:32.101Z,21.22
2019-03-30T13:46:06.030Z,21.08
2019-03-30T13:47:39.995Z,21.05
2019-03-30T13:49:13.981Z,21.15
2019-03-30T13:50:47.930Z,21.12
2019-03-30T13:52:21.854Z,20.51
2019-03-30T13:53:55.797Z,20.57
2019-03-30T13:55:29.816Z,20.36
2019-03-30T13:57:03.742Z,20.45
2019-03-30T13:58:37.657Z,20.19
2019-03-30T14:00:13.285Z,20.22
2019-03-30T14:01:47.303Z,20.26
2019-03-30T14:03:21.357Z,20.17
2019-03-30T14:04:55.390Z,19.99
2019-03-30T14:06:29.394Z,20.23
2019-03-30T14:08:03.347Z,20.54
2019-03-30T14:09:37.315Z,20.24
2019-03-30T14:11:12.081Z,20.56
2019-03-30T14:12:46.031Z,20.17
2019-03-30T14:14:19.947Z,20.53
2019-03-30T14:15:53.909Z,20.62
2019-03-30T14:17:27.822Z,20.35
2019-03-30T14:19:01.758Z,20.21
2019-03-30T14:20:35.701Z,20.18
2019-03-30T14:22:09.658Z,20.41
2019-03-30T14:23:43.777Z,20.24
2019-03-30T14:25:17.760Z,20.12
2019-03-30T14:26:51.688Z,20.22
2019-03-30T14:28:25.614Z,20.64
2019-03-30T14:29:59.582Z,20.44
2019-03-30T14:31:33.585Z,20.26
2019-03-30T14:33:07.573Z,20.06
2019-03-30T14:34:41.499Z,20.14
2019-03-30T14:36:15.428Z,20.03
2019-03-30T14:37:49.418Z,19.91
2019-03-30T14:39:23.345Z,19.88
2019-03-30T14:40:57.334Z,19.88
2019-03-30T14:42:31.250Z,19.91
2019-03-30T14:44:05.181Z,19.98
2019-03-30T14:45:39.191Z,20.03
2019-03-30T14:47:13.266Z,20.08
2019-03-30T14:48:47.281Z,20.08
2019-03-30T14:50:21.306Z,20.05
2019-03-30T14:51:55.278Z,19.75
2019-03-30T14:53:29.220Z,19.59
2019-03-30T14:55:03.137Z,19.60
2019-03-30T14:56:45.323Z,19.64
2019-03-30T14:58:12.766Z,19.72
2019-03-30T14:59:46.785Z,19.95
2019-03-30T15:01:20.729Z,19.87
2019-03-30T15:02:54.638Z,19.96
2019-03-30T15:04:28.598Z,19.82
2019-03-30T15:06:02.581Z,19.95
2019-03-30T15:07:36.555Z,19.82
2019-03-30T15:09:10.473Z,19.80
2019-03-30T15:10:44.361Z,19.65
2019-03-30T15:12:18.426Z,19.55
2019-03-30T15:13:52.583Z,19.40
2019-03-30T15:15:26.537Z,19.27
2019-03-30T15:17:00.474Z,19.16
2019-03-30T15:18:34.418Z,19.25
2019-03-30T15:20:10.347Z,19.56
2019-03-30T15:21:44.197Z,19.53
2019-03-30T15:23:18.132Z,19.12
2019-03-30T15:24:53.117Z,19.47
2019-03-30T15:26:27.033Z,19.38
2019-03-30T15:28:00.966Z,19.49
2019-03-30T15:29:34.881Z,19.09
2019-03-30T15:31:08.878Z,19.14
2019-03-30T15:32:42.785Z,19.17
2019-03-30T15:34:16.733Z,19.19
2019-03-30T15:35:50.638Z,19.29
2019-03-30T15:37:24.555Z,19.20
2019-03-30T15:38:58.609Z,19.17
2019-03-30T15:40:32.594Z,19.19
2019-03-30T15:42:06.514Z,19.08
2019-03-30T15:43:40.440Z,19.09
2019-03-30T15:45:14.373Z,18.92
2019-03-30T15:46:48.306Z,18.76
2019-03-30T15:48:22.281Z,18.93
2019-03-30T15:49:56.287Z,18.97
2019-03-30T15:51:30.310Z,18.93
2019-03-30T15:53:04.222Z,18.78
2019-03-30T15:54:38.159Z,18.86
2019-03-30T15:56:12.068Z,18.87
2019-03-30T15:57:46.061Z,18.65
2019-03-30T15:59:19.967Z,18.48
2019-03-30T16:00:53.978Z,18.37
2019-03-30T16:02:27.955Z,18.15
2019-03-30T16:04:02.665Z,18.01
2019-03-30T16:05:36.878Z,17.92
2019-03-30T16:07:10.873Z,17.78
2019-03-30T16:08:44.817Z,17.79
2019-03-30T16:10:18.734Z,17.76
2019-03-30T16:11:52.722Z,17.59
2019-03-30T16:13:26.794Z,17.57
2019-03-30T16:15:00.727Z,17.48
2019-03-30T16:16:34.653Z,17.55
2019-03-30T16:18:08.567Z,17.52
2019-03-30T16:19:42.480Z,17.40
2019-03-30T16:21:17.480Z,17.31
2019-03-30T16:22:51.418Z,17.32
2019-03-30T16:24:25.441Z,17.26
2019-03-30T16:25:59.444Z,17.29
2019-03-30T16:27:33.376Z,17.25
2019-03-30T16:29:07.350Z,17.25
2019-03-30T16:30:41.281Z,17.23
2019-03-30T16:32:15.449Z,17.30
2019-03-30T16:33:49.375Z,17.31
2019-03-30T16:35:23.397Z,17.42
2019-03-30T16:36:57.333Z,17.56
2019-03-30T16:38:31.350Z,17.51
2019-03-30T16:40:05.561Z,17.43
2019-03-30T16:41:39.502Z,17.31
2019-03-30T16:43:13.522Z,17.21
2019-03-30T16:44:47.426Z,17.20
2019-03-30T16:46:21.409Z,17.25
2019-03-30T16:47:55.366Z,17.24
2019-03-30T16:49:29.337Z,17.26
2019-03-30T16:51:03.296Z,17.22
2019-03-30T16:52:40.861Z,17.30
2019-03-30T16:54:12.972Z,17.30
2019-03-30T16:55:46.947Z,17.25
2019-03-30T16:57:20.869Z,17.26
2019-03-30T16:58:54.812Z,17.17
2019-03-30T17:00:32.510Z,17.03
2019-03-30T17:02:06.754Z,16.99
2019-03-30T17:03:40.784Z,16.90
2019-03-30T17:05:15.822Z,16.87
2019-03-30T17:06:49.757Z,16.72
2019-03-30T17:08:23.661Z,16.60
2019-03-30T17:09:57.584Z,16.56
2019-03-30T17:11:31.561Z,16.45
2019-03-30T17:13:05.492Z,16.38
2019-03-30T17:14:39.422Z,16.27
2019-03-30T17:16:13.341Z,16.30
2019-03-30T17:17:47.270Z,16.21
2019-03-30T17:19:21.256Z,16.19
2019-03-30T17:20:55.204Z,16.07
2019-03-30T17:22:29.246Z,16.08
2019-03-30T17:24:03.187Z,16.11
2019-03-30T17:25:37.099Z,16.03
2019-03-30T17:27:11.017Z,16.00
2019-03-30T17:28:44.966Z,15.95
2019-03-30T17:30:18.862Z,15.86
2019-03-30T17:31:52.806Z,15.82
2019-03-30T17:33:26.797Z,15.88
2019-03-30T17:35:00.723Z,15.73
2019-03-30T17:36:34.640Z,15.67
2019-03-30T17:38:08.622Z,15.67
2019-03-30T17:39:42.527Z,15.56
2019-03-30T17:41:16.445Z,15.48
2019-03-30T17:42:50.450Z,15.51
2019-03-30T17:44:24.373Z,15.39
2019-03-30T17:45:58.390Z,15.38
2019-03-30T17:47:32.433Z,15.32
2019-03-30T17:49:06.377Z,15.26
2019-03-30T17:50:40.397Z,15.23
2019-03-30T17:52:14.422Z,15.11
2019-03-30T17:53:48.401Z,14.99
2019-03-30T17:55:33.095Z,14.93
2019-03-30T17:56:58.002Z,14.77
2019-03-30T17:58:32.988Z,14.72
2019-03-30T18:00:08.148Z,14.73
2019-03-30T18:01:42.272Z,14.54
2019-03-30T18:03:16.282Z,14.58
2019-03-30T18:04:50.274Z,14.61
2019-03-30T18:06:24.197Z,14.52
2019-03-30T18:08:01.516Z,14.50
2019-03-30T18:09:33.809Z,14.40
2019-03-30T18:11:07.727Z,14.38
2019-03-30T18:12:41.663Z,14.37
2019-03-30T18:14:15.653Z,14.25
2019-03-30T18:15:49.593Z,14.23
2019-03-30T18:17:23.497Z,14.20
2019-03-30T18:18:57.496Z,14.20
2019-03-30T18:20:34.526Z,14.13
2019-03-30T18:22:08.529Z,14.00
2019-03-30T18:23:42.460Z,13.89
2019-03-30T18:25:16.650Z,13.86
2019-03-30T18:26:50.693Z,13.84
2019-03-30T18:28:27.424Z,13.81
2019-03-30T18:30:00.483Z,13.76
2019-03-30T18:31:34.458Z,13.67
2019-03-30T18:33:08.750Z,13.64
2019-03-30T18:34:42.688Z,13.64
2019-03-30T18:36:16.962Z,13.64
2019-03-30T18:37:50.885Z,13.59
2019-03-30T18:39:24.813Z,13.45
2019-03-30T18:40:58.729Z,13.43
2019-03-30T18:42:32.666Z,13.37
2019-03-30T18:44:06.578Z,13.37
2019-03-30T18:45:41.470Z,13.34
2019-03-30T18:47:15.478Z,13.30
2019-03-30T18:48:49.456Z,13.38
2019-03-30T18:50:23.476Z,13.28
2019-03-30T18:51:57.487Z,13.28
2019-03-30T18:53:31.505Z,13.31
2019-03-30T18:55:05.720Z,13.27
2019-03-30T18:56:39.678Z,13.27
2019-03-30T18:58:13.633Z,13.21
2019-03-30T18:59:47.617Z,13.16
2019-03-30T19:01:21.525Z,13.04
2019-03-30T19:02:56.411Z,13.07
2019-03-30T19:04:30.337Z,13.12
2019-03-30T19:06:04.349Z,13.11
2019-03-30T19:07:38.282Z,12.89
2019-03-30T19:09:12.202Z,12.98
2019-03-30T19:10:46.109Z,12.96
2019-03-30T19:12:20.022Z,13.00
2019-03-30T19:13:53.955Z,13.02
2019-03-30T19:15:27.989Z,12.99
2019-03-30T19:17:01.999Z,12.97
2019-03-30T19:18:36.158Z,12.96
2019-03-30T19:20:10.314Z,12.89
2019-03-30T19:21:44.238Z,12.91
2019-03-30T19:23:18.145Z,12.97
2019-03-30T19:24:52.085Z,12.96
2019-03-30T19:26:26.061Z,13.01
2019-03-30T19:28:00.101Z,12.96
2019-03-30T19:29:34.090Z,12.80
2019-03-30T19:31:08.014Z,12.75
2019-03-30T19:32:42.025Z,12.78
2019-03-30T19:34:15.950Z,12.74
2019-03-30T19:35:49.862Z,12.68
2019-03-30T19:37:23.805Z,12.75
2019-03-30T19:38:57.710Z,12.74
2019-03-30T19:40:31.636Z,12.64
2019-03-30T19:42:05.539Z,12.63
2019-03-30T19:43:39.516Z,12.69
2019-03-30T19:45:13.890Z,12.67
2019-03-30T19:46:47.898Z,12.57
2019-03-30T19:48:27.522Z,12.46
2019-03-30T19:50:01.452Z,12.62
2019-03-30T19:51:38.211Z,12.50
2019-03-30T19:53:12.235Z,12.52
2019-03-30T19:54:46.274Z,12.41
2019-03-30T19:56:20.241Z,12.49
2019-03-30T19:57:55.139Z,12.42
2019-03-30T19:59:29.046Z,12.53
2019-03-30T20:01:04.142Z,12.47
2019-03-30T20:02:38.065Z,12.41
2019-03-30T20:04:11.988Z,12.37
2019-03-30T20:05:45.999Z,12.32
2019-03-30T20:07:19.937Z,12.45
2019-03-30T20:08:53.855Z,12.41
2019-03-30T20:10:27.862Z,12.35
2019-03-30T20:12:01.894Z,12.25
2019-03-30T20:13:36.871Z,12.23
2019-03-30T20:15:10.792Z,12.32
2019-03-30T20:16:45.051Z,12.24
2019-03-30T20:18:19.010Z,12.32
2019-03-30T20:19:53.050Z,12.25
2019-03-30T20:21:27.066Z,12.24
2019-03-30T20:23:01.033Z,12.17
2019-03-30T20:24:34.977Z,12.15
2019-03-30T20:26:09.938Z,12.14